createdAt,value
2018-05-17T00:02:21.195Z,76.80
2018-05-17T00:04:48.686Z,76.70
2018-05-17T00:07:16.771Z,77.20
2018-05-17T00:09:44.269Z,77.40
2018-05-17T00:12:12.593Z,77.60
2018-05-17T00:14:40.086Z,78.40
2018-05-17T00:17:08.970Z,77.80
2018-05-17T00:19:37.021Z,77.90
2018-05-17T00:22:04.608Z,78.30
2018-05-17T00:24:32.094Z,78.60
2018-05-17T00:26:59.582Z,78.80
2018-05-17T00:29:27.093Z,79.00
2018-05-17T00:31:55.800Z,79.20
2018-05-17T00:34:23.294Z,80.20
2018-05-17T00:36:50.765Z,79.10
2018-05-17T00:39:18.281Z,79.20
2018-05-17T00:41:45.769Z,80.50
2018-05-17T00:44:13.839Z,80.70
2018-05-17T00:46:41.334Z,80.90
2018-05-17T00:49:10.201Z,80.60
2018-05-17T00:51:37.670Z,80.60
2018-05-17T00:54:05.172Z,79.60
2018-05-17T00:56:32.669Z,79.50
2018-05-17T00:59:00.153Z,79.40
2018-05-17T01:01:28.419Z,79.60
2018-05-17T01:03:55.897Z,79.60
2018-05-17T01:06:24.247Z,80.20
2018-05-17T01:08:51.777Z,80.10
2018-05-17T01:11:19.809Z,80.50
2018-05-17T01:13:47.309Z,80.50
2018-05-17T01:16:14.795Z,80.80
2018-05-17T01:18:42.293Z,81.00
2018-05-17T01:21:09.792Z,80.60
2018-05-17T01:23:37.338Z,81.00
2018-05-17T01:26:04.827Z,81.20
2018-05-17T01:28:33.313Z,80.90
2018-05-17T01:31:00.884Z,81.10
2018-05-17T01:33:30.576Z,81.30
2018-05-17T01:35:58.073Z,81.30
2018-05-17T01:38:26.320Z,81.40
2018-05-17T01:40:54.590Z,81.50
2018-05-17T01:43:22.857Z,82.30
2018-05-17T01:45:50.341Z,81.60
2018-05-17T01:48:17.868Z,81.10
2018-05-17T01:50:46.095Z,80.80
2018-05-17T01:53:13.592Z,82.10
2018-05-17T01:55:41.089Z,81.80
2018-05-17T01:58:09.334Z,81.70
2018-05-17T02:00:36.826Z,81.70
2018-05-17T02:03:05.159Z,80.60
2018-05-17T02:05:32.753Z,80.60
2018-05-17T02:08:00.997Z,81.50
2018-05-17T02:10:28.498Z,81.50
2018-05-17T02:12:56.780Z,80.00
2018-05-17T02:15:25.140Z,80.00
2018-05-17T02:17:54.812Z,79.60
2018-05-17T02:20:22.284Z,79.60
2018-05-17T02:22:49.823Z,80.40
2018-05-17T02:25:18.135Z,80.40
2018-05-17T02:27:45.647Z,81.20
2018-05-17T02:30:13.625Z,80.30
2018-05-17T02:32:41.603Z,80.50
2018-05-17T02:35:09.087Z,80.40
2018-05-17T02:37:36.562Z,80.20
2018-05-17T02:40:04.839Z,79.50
2018-05-17T02:42:33.117Z,79.50
2018-05-17T02:45:01.391Z,79.10
2018-05-17T02:47:28.879Z,79.10
2018-05-17T02:49:56.391Z,78.30
2018-05-17T02:52:24.646Z,78.20
2018-05-17T02:54:52.145Z,78.20
2018-05-17T02:57:20.406Z,77.10
2018-05-17T02:59:48.675Z,76.50
2018-05-17T03:02:16.952Z,76.90
2018-05-17T03:04:45.274Z,76.80
2018-05-17T03:07:13.629Z,76.50
2018-05-17T03:09:41.186Z,76.60
2018-05-17T03:12:10.255Z,76.20
2018-05-17T03:14:38.163Z,76.20
2018-05-17T03:17:05.666Z,76.90
2018-05-17T03:19:33.149Z,76.10
2018-05-17T03:22:01.414Z,76.60
2018-05-17T03:24:28.894Z,76.60
2018-05-17T03:26:57.639Z,76.30
2018-05-17T03:29:25.136Z,76.30
2018-05-17T03:31:53.468Z,76.60
2018-05-17T03:34:21.901Z,76.60
2018-05-17T03:36:50.600Z,76.60
2018-05-17T03:39:18.093Z,77.20
2018-05-17T03:41:45.593Z,76.10
2018-05-17T03:44:13.161Z,75.90
2018-05-17T03:46:41.417Z,75.70
2018-05-17T03:49:09.676Z,75.50
2018-05-17T03:51:37.165Z,75.50
2018-05-17T03:54:05.410Z,75.40
2018-05-17T03:56:32.966Z,75.40
2018-05-17T03:59:00.541Z,75.80
2018-05-17T04:01:40.425Z,76.80
2018-05-17T04:04:19.720Z,76.60
2018-05-17T04:06:47.298Z,77.10
2018-05-17T04:09:15.547Z,77.60
2018-05-17T04:11:43.052Z,77.60
2018-05-17T04:14:10.540Z,77.30
2018-05-17T04:16:38.817Z,77.50
2018-05-17T04:19:06.298Z,77.40
2018-05-17T04:21:33.807Z,77.10
2018-05-17T04:24:01.287Z,76.70
2018-05-17T04:26:29.267Z,74.90
2018-05-17T04:28:56.774Z,75.00
2018-05-17T04:31:24.255Z,74.90
2018-05-17T04:33:51.762Z,75.40
2018-05-17T04:36:19.248Z,75.70
2018-05-17T04:38:47.452Z,75.90
2018-05-17T04:41:14.921Z,76.10
2018-05-17T04:43:42.438Z,75.70
2018-05-17T04:46:10.654Z,75.50
2018-05-17T04:48:38.144Z,75.10
2018-05-17T04:51:06.381Z,75.00
2018-05-17T04:53:33.868Z,73.20
2018-05-17T04:56:01.405Z,73.10
2018-05-17T04:58:28.918Z,73.60
2018-05-17T05:00:57.287Z,73.90
2018-05-17T05:03:26.150Z,73.60
2018-05-17T05:05:53.638Z,73.50
2018-05-17T05:08:21.902Z,73.00
2018-05-17T05:10:50.688Z,72.10
2018-05-17T05:13:18.177Z,72.00
2018-05-17T05:15:45.669Z,71.60
2018-05-17T05:18:13.172Z,71.40
2018-05-17T05:20:41.472Z,71.30
2018-05-17T05:23:08.966Z,71.20
2018-05-17T05:25:36.443Z,71.10
2018-05-17T05:28:04.648Z,70.50
2018-05-17T05:30:32.166Z,69.40
2018-05-17T05:32:59.657Z,69.90
2018-05-17T05:35:28.408Z,68.70
2018-05-17T05:37:56.766Z,68.70
2018-05-17T05:40:24.272Z,68.50
2018-05-17T05:42:52.573Z,67.70
2018-05-17T05:45:20.099Z,67.60
2018-05-17T05:47:47.628Z,67.50
2018-05-17T05:50:15.603Z,67.70
2018-05-17T05:52:43.094Z,67.40
2018-05-17T05:55:11.377Z,67.70
2018-05-17T05:57:39.698Z,66.80
2018-05-17T06:00:07.204Z,67.40
2018-05-17T06:02:34.761Z,66.10
2018-05-17T06:05:03.183Z,66.60
2018-05-17T06:07:31.396Z,66.50
2018-05-17T06:09:58.944Z,66.50
2018-05-17T06:12:26.477Z,66.40
2018-05-17T06:14:53.972Z,66.40
2018-05-17T06:17:21.575Z,66.60
2018-05-17T06:19:48.966Z,66.60
2018-05-17T06:22:16.497Z,65.70
2018-05-17T06:24:43.990Z,65.80
2018-05-17T06:27:12.321Z,65.70
2018-05-17T06:29:39.858Z,65.00
2018-05-17T06:32:08.195Z,65.00
2018-05-17T06:34:35.714Z,65.00
2018-05-17T06:37:03.189Z,64.10
2018-05-17T06:39:30.713Z,63.80
2018-05-17T06:41:58.989Z,63.70
2018-05-17T06:44:27.261Z,63.40
2018-05-17T06:46:55.505Z,63.00
2018-05-17T06:49:23.031Z,62.90
2018-05-17T06:51:51.326Z,63.10
2018-05-17T06:54:18.804Z,62.40
2018-05-17T06:56:47.129Z,63.10
2018-05-17T06:59:14.645Z,62.60
2018-05-17T07:01:42.165Z,62.00
2018-05-17T07:04:09.666Z,61.40
2018-05-17T07:06:37.175Z,61.80
2018-05-17T07:09:05.828Z,62.00
2018-05-17T07:11:34.141Z,61.40
2018-05-17T07:14:01.752Z,61.40
2018-05-17T07:16:29.283Z,61.10
2018-05-17T07:18:57.508Z,61.60
2018-05-17T07:21:25.789Z,59.50
2018-05-17T07:23:53.282Z,59.50
2018-05-17T07:26:20.798Z,59.20
2018-05-17T07:28:48.905Z,58.80
2018-05-17T07:31:16.889Z,57.20
2018-05-17T07:33:44.394Z,57.10
2018-05-17T07:36:12.767Z,58.40
2018-05-17T07:38:41.114Z,58.90
2018-05-17T07:41:08.707Z,58.90
2018-05-17T07:43:36.996Z,58.50
2018-05-17T07:46:05.754Z,58.00
2018-05-17T07:48:33.339Z,58.10
2018-05-17T07:51:01.615Z,58.10
2018-05-17T07:53:29.129Z,58.10
2018-05-17T07:55:56.633Z,57.40
2018-05-17T07:58:24.919Z,57.00
2018-05-17T08:00:52.415Z,56.90
2018-05-17T08:03:19.927Z,56.70
2018-05-17T08:05:47.448Z,56.40
2018-05-17T08:08:14.944Z,55.80
2018-05-17T08:10:42.909Z,55.60
2018-05-17T08:13:10.493Z,55.60
2018-05-17T08:15:37.991Z,56.40
2018-05-17T08:18:05.483Z,56.10
2018-05-17T08:20:33.000Z,56.00
2018-05-17T08:23:00.509Z,54.80
2018-05-17T08:25:28.042Z,52.90
2018-05-17T08:27:56.313Z,53.90
2018-05-17T08:30:23.842Z,53.70
2018-05-17T08:32:51.359Z,54.20
2018-05-17T08:35:19.457Z,54.50
2018-05-17T08:37:47.656Z,53.80
2018-05-17T08:40:15.156Z,53.20
2018-05-17T08:42:43.448Z,55.10
2018-05-17T08:45:11.409Z,55.10
2018-05-17T08:47:43.301Z,54.90
2018-05-17T08:50:10.899Z,55.90
2018-05-17T08:52:38.578Z,55.40
2018-05-17T08:55:08.030Z,54.80
2018-05-17T08:57:35.557Z,54.80
2018-05-17T09:00:03.231Z,54.30
2018-05-17T09:02:30.903Z,54.10
2018-05-17T09:04:58.496Z,53.40
2018-05-17T09:07:26.061Z,53.40
2018-05-17T09:09:53.641Z,54.30
2018-05-17T09:12:21.918Z,55.20
2018-05-17T09:14:50.208Z,56.20
2018-05-17T09:17:17.709Z,56.20
2018-05-17T09:19:45.220Z,55.30
2018-05-17T09:22:14.059Z,55.80
2018-05-17T09:24:41.559Z,55.80
2018-05-17T09:27:10.832Z,55.00
2018-05-17T09:29:38.332Z,55.10
2018-05-17T09:32:06.790Z,55.20
2018-05-17T09:34:35.932Z,54.70
2018-05-17T09:37:03.441Z,54.60
2018-05-17T09:39:31.695Z,53.30
2018-05-17T09:41:59.192Z,53.00
2018-05-17T09:44:26.695Z,52.80
2018-05-17T09:46:54.225Z,53.70
2018-05-17T09:49:21.712Z,53.50
2018-05-17T09:51:49.218Z,52.20
2018-05-17T09:54:17.473Z,53.30
2018-05-17T09:56:44.990Z,53.30
2018-05-17T09:59:12.495Z,53.80
2018-05-17T10:01:40.739Z,53.50
2018-05-17T10:04:08.260Z,53.40
2018-05-17T10:06:35.760Z,53.40
2018-05-17T10:09:03.966Z,53.00
2018-05-17T10:11:32.827Z,54.40
2018-05-17T10:14:00.351Z,54.30
2018-05-17T10:16:27.836Z,54.30
2018-05-17T10:18:55.451Z,53.90
2018-05-17T10:21:22.949Z,54.60
2018-05-17T10:23:50.462Z,54.00
2018-05-17T10:26:17.964Z,53.90
2018-05-17T10:28:46.390Z,54.90
2018-05-17T10:31:14.653Z,51.40
2018-05-17T10:33:42.909Z,52.40
2018-05-17T10:36:10.398Z,51.90
2018-05-17T10:38:38.700Z,53.40
2018-05-17T10:41:07.102Z,53.40
2018-05-17T10:43:34.618Z,53.80
2018-05-17T10:46:02.913Z,54.10
2018-05-17T10:48:30.420Z,54.10
2018-05-17T10:50:57.965Z,54.00
2018-05-17T10:53:25.492Z,53.20
2018-05-17T10:55:53.764Z,52.90
2018-05-17T10:58:21.272Z,52.80
2018-05-17T11:00:48.761Z,51.50
2018-05-17T11:03:17.030Z,51.10
2018-05-17T11:05:45.782Z,53.00
2018-05-17T11:08:13.348Z,52.90
2018-05-17T11:10:40.862Z,52.00
2018-05-17T11:13:08.485Z,51.90
2018-05-17T11:15:36.037Z,51.90
2018-05-17T11:18:03.608Z,51.60
2018-05-17T11:20:32.848Z,51.40
2018-05-17T11:23:00.788Z,51.40
2018-05-17T11:25:29.062Z,53.50
2018-05-17T11:27:57.804Z,51.30
2018-05-17T11:30:25.313Z,51.10
2018-05-17T11:32:52.807Z,50.10
2018-05-17T11:35:20.319Z,49.20
2018-05-17T11:37:49.165Z,50.40
2018-05-17T11:40:16.667Z,50.40
2018-05-17T11:42:44.921Z,50.10
2018-05-17T11:45:12.592Z,50.10
2018-05-17T11:47:40.665Z,51.20
2018-05-17T11:50:08.370Z,50.80
2018-05-17T11:52:39.635Z,50.30
2018-05-17T11:55:08.003Z,51.60
2018-05-17T11:57:36.439Z,51.00
2018-05-17T12:00:05.332Z,51.20
2018-05-17T12:02:35.444Z,51.00
2018-05-17T12:05:02.929Z,50.80
2018-05-17T12:07:30.489Z,51.40
2018-05-17T12:09:57.944Z,48.80
2018-05-17T12:12:26.281Z,49.30
2018-05-17T12:14:53.777Z,49.20
2018-05-17T12:17:21.274Z,48.30
2018-05-17T12:19:48.759Z,49.60
2018-05-17T12:22:17.711Z,49.40
2018-05-17T12:24:45.793Z,48.50
2018-05-17T12:27:14.013Z,49.10
2018-05-17T12:29:42.286Z,50.00
2018-05-17T12:32:10.891Z,49.40
2018-05-17T12:34:38.421Z,49.50
2018-05-17T12:37:06.102Z,49.70
2018-05-17T12:39:34.153Z,50.20
2018-05-17T12:42:01.674Z,50.10
2018-05-17T12:44:29.161Z,50.60
2018-05-17T12:46:56.667Z,50.90
2018-05-17T12:49:24.145Z,51.00
2018-05-17T12:51:51.699Z,50.40
2018-05-17T12:54:19.202Z,49.40
2018-05-17T12:56:48.066Z,50.00
2018-05-17T12:59:15.597Z,49.90
2018-05-17T13:01:43.106Z,49.10
2018-05-17T13:04:10.620Z,49.50
2018-05-17T13:06:38.130Z,48.60
2018-05-17T13:09:07.294Z,48.50
2018-05-17T13:11:34.802Z,48.50
2018-05-17T13:14:02.303Z,48.30
2018-05-17T13:16:29.823Z,48.90
2018-05-17T13:18:57.340Z,48.60
2018-05-17T13:21:24.858Z,48.90
2018-05-17T13:23:52.385Z,47.60
2018-05-17T13:26:20.657Z,48.10
2018-05-17T13:28:48.961Z,48.30
2018-05-17T13:31:16.481Z,48.30
2018-05-17T13:33:43.982Z,49.60
2018-05-17T13:36:11.476Z,48.00
2018-05-17T13:38:39.061Z,47.10
2018-05-17T13:41:07.334Z,47.10
2018-05-17T13:43:34.803Z,47.10
2018-05-17T13:46:03.163Z,47.30
2018-05-17T13:48:30.629Z,47.30
2018-05-17T13:50:59.598Z,47.70
2018-05-17T13:53:27.071Z,47.70
2018-05-17T13:55:54.564Z,46.70
2018-05-17T13:58:22.095Z,46.80
2018-05-17T14:00:50.357Z,47.60
2018-05-17T14:03:18.587Z,46.90
2018-05-17T14:05:46.069Z,46.90
2018-05-17T14:08:13.573Z,47.40
2018-05-17T14:10:41.917Z,46.20
2018-05-17T14:13:09.465Z,46.20
2018-05-17T14:15:37.126Z,47.20
2018-05-17T14:18:05.316Z,46.10
2018-05-17T14:20:32.833Z,46.10
2018-05-17T14:23:00.933Z,46.20
2018-05-17T14:25:28.423Z,46.70
2018-05-17T14:27:56.699Z,45.40
2018-05-17T14:30:25.075Z,45.40
2018-05-17T14:32:52.545Z,44.70
2018-05-17T14:35:20.819Z,46.00
2018-05-17T14:37:50.119Z,46.00
2018-05-17T14:40:19.099Z,47.00
2018-05-17T14:42:46.677Z,47.00
2018-05-17T14:45:14.941Z,46.90
2018-05-17T14:47:43.714Z,47.50
2018-05-17T14:50:11.243Z,47.50
2018-05-17T14:52:38.777Z,48.20
2018-05-17T14:55:06.306Z,48.30
2018-05-17T14:57:33.800Z,48.80
2018-05-17T15:00:01.315Z,49.40
2018-05-17T15:02:29.579Z,47.00
2018-05-17T15:04:57.074Z,46.90
2018-05-17T15:07:25.426Z,47.50
2018-05-17T15:09:53.728Z,48.30
2018-05-17T15:12:21.981Z,48.30
2018-05-17T15:14:50.302Z,49.30
2018-05-17T15:17:18.547Z,48.90
2018-05-17T15:19:46.804Z,48.20
2018-05-17T15:22:14.904Z,48.20
2018-05-17T15:24:43.046Z,48.10
2018-05-17T15:27:10.511Z,48.30
2018-05-17T15:29:38.859Z,48.50
2018-05-17T15:32:06.262Z,48.50
2018-05-17T15:34:33.773Z,48.40
2018-05-17T15:37:01.284Z,47.80
2018-05-17T15:39:28.763Z,48.50
2018-05-17T15:41:56.302Z,49.00
2018-05-17T15:44:24.421Z,49.00
2018-05-17T15:46:51.910Z,48.40
2018-05-17T15:49:20.193Z,49.60
2018-05-17T15:51:49.136Z,49.10
2018-05-17T15:54:16.648Z,49.00
2018-05-17T15:56:44.899Z,49.70
2018-05-17T15:59:12.408Z,49.70
2018-05-17T16:01:39.907Z,51.20
2018-05-17T16:04:07.403Z,50.80
2018-05-17T16:06:35.038Z,50.70
2018-05-17T16:09:02.539Z,49.90
2018-05-17T16:11:30.780Z,50.20
2018-05-17T16:13:59.025Z,50.20
2018-05-17T16:16:26.505Z,50.20
2018-05-17T16:18:54.020Z,50.20
2018-05-17T16:21:21.506Z,50.40
2018-05-17T16:23:49.020Z,50.10
2018-05-17T16:26:16.531Z,49.90
2018-05-17T16:28:44.051Z,50.10
2018-05-17T16:31:11.570Z,51.20
2018-05-17T16:33:40.516Z,52.20
2018-05-17T16:36:08.023Z,52.20
2018-05-17T16:38:36.277Z,52.10
2018-05-17T16:41:04.693Z,52.10
2018-05-17T16:43:32.215Z,52.20
2018-05-17T16:45:59.759Z,52.20
2018-05-17T16:48:27.329Z,52.60
2018-05-17T16:50:55.510Z,53.60
2018-05-17T16:53:23.837Z,53.80
2018-05-17T16:55:51.340Z,53.80
2018-05-17T16:58:18.837Z,53.70
2018-05-17T17:00:46.404Z,53.70
2018-05-17T17:03:13.898Z,53.40
2018-05-17T17:05:41.446Z,53.60
2018-05-17T17:08:09.049Z,53.60
2018-05-17T17:10:38.016Z,52.30
2018-05-17T17:13:05.521Z,52.30
2018-05-17T17:15:33.006Z,51.60
2018-05-17T17:18:00.482Z,51.20
2018-05-17T17:20:28.738Z,50.00
2018-05-17T17:22:57.057Z,49.10
2018-05-17T17:25:24.566Z,48.50
2018-05-17T17:27:52.061Z,47.80
2018-05-17T17:30:19.545Z,46.30
2018-05-17T17:32:47.819Z,47.10
2018-05-17T17:35:16.986Z,46.60
2018-05-17T17:37:44.552Z,46.70
2018-05-17T17:40:12.077Z,45.80
2018-05-17T17:42:39.578Z,46.70
2018-05-17T17:45:07.128Z,46.90
2018-05-17T17:47:34.642Z,47.70
2018-05-17T17:50:02.155Z,47.80
2018-05-17T17:52:29.659Z,48.50
2018-05-17T17:54:57.134Z,49.80
2018-05-17T17:57:24.665Z,51.60
2018-05-17T17:59:52.169Z,51.50
2018-05-17T18:02:19.773Z,51.60
2018-05-17T18:04:47.715Z,52.90
2018-05-17T18:07:16.460Z,55.60
2018-05-17T18:09:43.951Z,55.50
2018-05-17T18:12:11.446Z,56.60
2018-05-17T18:14:38.953Z,57.80
2018-05-17T18:17:06.452Z,59.10
2018-05-17T18:19:33.977Z,60.20
2018-05-17T18:22:01.480Z,61.30
2018-05-17T18:24:29.000Z,61.60
2018-05-17T18:26:56.473Z,62.20
2018-05-17T18:29:24.757Z,62.30
2018-05-17T18:31:53.083Z,63.30
2018-05-17T18:34:20.604Z,63.10
2018-05-17T18:36:48.125Z,63.30
2018-05-17T18:39:16.477Z,63.70
2018-05-17T18:41:43.993Z,63.90
2018-05-17T18:44:12.249Z,64.40
2018-05-17T18:46:39.751Z,64.40
2018-05-17T18:49:07.269Z,64.70
2018-05-17T18:51:35.612Z,64.20
2018-05-17T18:54:03.120Z,64.10
2018-05-17T18:56:31.408Z,64.50
2018-05-17T18:58:59.516Z,64.50
2018-05-17T19:01:27.038Z,64.70
2018-05-17T19:03:55.333Z,65.40
2018-05-17T19:06:22.831Z,65.40
2018-05-17T19:08:50.456Z,65.30
2018-05-17T19:11:17.857Z,65.40
2018-05-17T19:13:45.354Z,65.70
2018-05-17T19:16:12.849Z,65.60
2018-05-17T19:18:40.364Z,65.60
2018-05-17T19:21:07.881Z,66.00
2018-05-17T19:23:35.384Z,66.10
2018-05-17T19:26:02.893Z,66.60
2018-05-17T19:28:30.401Z,66.90
2018-05-17T19:30:57.925Z,67.00
2018-05-17T19:33:26.979Z,67.40
2018-05-17T19:35:54.581Z,67.30
2018-05-17T19:38:22.846Z,67.10
2018-05-17T19:40:50.359Z,67.00
2018-05-17T19:43:17.911Z,67.30
2018-05-17T19:45:45.436Z,67.00
2018-05-17T19:48:13.745Z,67.40
2018-05-17T19:50:42.041Z,67.60
2018-05-17T19:53:09.538Z,67.60
2018-05-17T19:55:37.825Z,68.90
2018-05-17T19:58:06.113Z,68.40
2018-05-17T20:00:33.641Z,68.30
2018-05-17T20:03:01.134Z,68.30
2018-05-17T20:05:29.388Z,68.50
2018-05-17T20:07:57.662Z,68.80
2018-05-17T20:10:25.992Z,69.10
2018-05-17T20:12:53.491Z,69.00
2018-05-17T20:15:21.027Z,69.00
2018-05-17T20:17:48.531Z,69.20
2018-05-17T20:20:16.797Z,69.50
2018-05-17T20:22:45.065Z,69.90
2018-05-17T20:25:13.344Z,70.20
2018-05-17T20:27:41.609Z,70.50
2018-05-17T20:30:09.121Z,70.40
2018-05-17T20:32:36.630Z,70.50
2018-05-17T20:35:04.159Z,70.50
2018-05-17T20:37:31.662Z,70.60
2018-05-17T20:39:59.931Z,70.40
2018-05-17T20:42:28.310Z,70.30
2018-05-17T20:44:55.744Z,70.30
2018-05-17T20:47:23.284Z,70.50
2018-05-17T20:49:50.765Z,70.60
2018-05-17T20:52:18.260Z,70.90
2018-05-17T20:54:45.747Z,71.10
2018-05-17T20:57:13.237Z,71.40
2018-05-17T20:59:41.190Z,71.50
2018-05-17T21:02:08.715Z,71.60
2018-05-17T21:04:36.196Z,71.70
2018-05-17T21:07:03.704Z,71.90
2018-05-17T21:09:31.998Z,71.90
2018-05-17T21:11:59.510Z,71.90
2018-05-17T21:14:27.013Z,72.10
2018-05-17T21:16:54.496Z,72.10
2018-05-17T21:19:22.008Z,72.10
2018-05-17T21:21:50.260Z,72.30
2018-05-17T21:24:17.780Z,72.30
2018-05-17T21:26:45.886Z,72.40
2018-05-17T21:29:14.083Z,72.70
2018-05-17T21:31:42.368Z,72.80
2018-05-17T21:34:10.637Z,72.80
2018-05-17T21:36:38.893Z,73.00
2018-05-17T21:39:06.371Z,73.00
2018-05-17T21:41:34.661Z,72.60
2018-05-17T21:44:03.408Z,72.60
2018-05-17T21:46:30.890Z,72.60
2018-05-17T21:48:59.182Z,72.70
2018-05-17T21:51:27.525Z,73.00
2018-05-17T21:53:55.057Z,72.90
2018-05-17T21:56:22.648Z,73.20
2018-05-17T21:58:50.290Z,73.20
2018-05-17T22:01:17.759Z,73.20
2018-05-17T22:03:45.266Z,73.20
2018-05-17T22:06:12.773Z,73.30
2018-05-17T22:08:40.269Z,73.40
2018-05-17T22:11:07.760Z,73.50
2018-05-17T22:13:35.271Z,73.50
2018-05-17T22:16:03.516Z,74.60
2018-05-17T22:18:31.033Z,73.90
2018-05-17T22:20:58.533Z,73.90
2018-05-17T22:23:26.010Z,74.00
2018-05-17T22:25:54.299Z,74.10
2018-05-17T22:28:22.558Z,73.50
2018-05-17T22:30:50.868Z,74.10
2018-05-17T22:33:18.371Z,73.50
2018-05-17T22:35:46.518Z,73.00
2018-05-17T22:38:13.999Z,73.50
2018-05-17T22:40:41.492Z,73.50
2018-05-17T22:43:09.748Z,73.60
2018-05-17T22:45:37.252Z,73.50
2018-05-17T22:48:05.590Z,74.10
2018-05-17T22:50:33.079Z,74.10
2018-05-17T22:53:01.409Z,74.10
2018-05-17T22:55:28.886Z,74.00
2018-05-17T22:58:08.159Z,74.00
2018-05-17T23:00:35.662Z,73.50
2018-05-17T23:03:03.180Z,74.00
2018-05-17T23:05:30.685Z,74.10
2018-05-17T23:07:58.159Z,74.30
2018-05-17T23:10:26.457Z,73.50
2018-05-17T23:12:53.942Z,73.40
2018-05-17T23:15:21.435Z,73.40
2018-05-17T23:17:48.948Z,73.20
2018-05-17T23:20:16.448Z,73.50
2018-05-17T23:22:43.927Z,73.70
2018-05-17T23:25:12.797Z,72.90
2018-05-17T23:27:40.896Z,72.90
2018-05-17T23:30:10.068Z,72.50
2018-05-17T23:32:37.690Z,72.40
2018-05-17T23:35:05.227Z,72.40
2018-05-17T23:37:32.786Z,72.50
2018-05-17T23:40:23.873Z,72.70
2018-05-17T23:42:52.146Z,72.80
2018-05-17T23:45:20.417Z,73.00
2018-05-17T23:47:48.679Z,73.80
2018-05-17T23:50:16.182Z,73.00
2018-05-17T23:52:44.117Z,72.90
2018-05-17T23:55:11.602Z,73.10
2018-05-17T23:57:39.095Z,73.60
